sensor_id;sensor_type;location;lat;lon;timestamp;P1;durP1;ratioP1;P2;durP2;ratioP2
10617;SDS011;5356;43.526;26.534;2023-07-31T00:01:45;1.27;;;1.10;;
10617;SDS011;5356;43.526;26.534;2023-07-31T00:04:10;1.77;;;1.30;;
10617;SDS011;5356;43.526;26.534;2023-07-31T00:06:35;2.10;;;1.30;;
10617;SDS011;5356;43.526;26.534;2023-07-31T00:09:01;2.28;;;1.05;;
10617;SDS011;5356;43.526;26.534;2023-07-31T00:11:26;1.75;;;1.13;;
10617;SDS011;5356;43.526;26.534;2023-07-31T00:13:52;1.35;;;1.10;;
10617;SDS011;5356;43.526;26.534;2023-07-31T00:16:18;1.83;;;1.25;;
10617;SDS011;5356;43.526;26.534;2023-07-31T00:18:44;2.25;;;1.30;;
10617;SDS011;5356;43.526;26.534;2023-07-31T00:21:09;1.38;;;1.27;;
10617;SDS011;5356;43.526;26.534;2023-07-31T00:23:34;1.77;;;1.27;;
10617;SDS011;5356;43.526;26.534;2023-07-31T00:26:00;2.17;;;1.38;;
10617;SDS011;5356;43.526;26.534;2023-07-31T00:28:25;3.30;;;1.38;;
10617;SDS011;5356;43.526;26.534;2023-07-31T00:30:52;2.05;;;1.42;;
10617;SDS011;5356;43.526;26.534;2023-07-31T00:33:18;2.13;;;1.40;;
10617;SDS011;5356;43.526;26.534;2023-07-31T00:35:43;1.83;;;1.33;;
10617;SDS011;5356;43.526;26.534;2023-07-31T00:38:08;1.55;;;1.40;;
10617;SDS011;5356;43.526;26.534;2023-07-31T00:40:34;2.03;;;1.13;;
10617;SDS011;5356;43.526;26.534;2023-07-31T00:43:01;1.15;;;1.05;;
10617;SDS011;5356;43.526;26.534;2023-07-31T00:45:28;1.60;;;1.20;;
10617;SDS011;5356;43.526;26.534;2023-07-31T00:47:54;2.03;;;1.40;;
10617;SDS011;5356;43.526;26.534;2023-07-31T00:50:19;1.27;;;1.17;;
10617;SDS011;5356;43.526;26.534;2023-07-31T00:52:45;1.88;;;1.15;;
10617;SDS011;5356;43.526;26.534;2023-07-31T00:55:10;1.50;;;1.40;;
10617;SDS011;5356;43.526;26.534;2023-07-31T00:57:36;2.65;;;1.30;;
10617;SDS011;5356;43.526;26.534;2023-07-31T01:00:03;1.65;;;1.10;;
10617;SDS011;5356;43.526;26.534;2023-07-31T01:02:29;1.17;;;1.08;;
10617;SDS011;5356;43.526;26.534;2023-07-31T01:04:54;1.67;;;1.20;;
10617;SDS011;5356;43.526;26.534;2023-07-31T01:07:22;2.97;;;1.50;;
10617;SDS011;5356;43.526;26.534;2023-07-31T01:10:18;2.05;;;1.27;;
10617;SDS011;5356;43.526;26.534;2023-07-31T01:12:47;1.80;;;1.23;;
10617;SDS011;5356;43.526;26.534;2023-07-31T01:15:13;2.55;;;1.40;;
10617;SDS011;5356;43.526;26.534;2023-07-31T01:17:41;3.17;;;1.50;;
10617;SDS011;5356;43.526;26.534;2023-07-31T01:20:11;2.58;;;1.23;;
10617;SDS011;5356;43.526;26.534;2023-07-31T01:23:01;1.70;;;1.38;;
10617;SDS011;5356;43.526;26.534;2023-07-31T01:28:45;2.92;;;1.58;;
10617;SDS011;5356;43.526;26.534;2023-07-31T01:31:22;2.30;;;1.50;;
10617;SDS011;5356;43.526;26.534;2023-07-31T01:33:49;1.50;;;1.40;;
10617;SDS011;5356;43.526;26.534;2023-07-31T01:36:18;2.45;;;1.60;;
10617;SDS011;5356;43.526;26.534;2023-07-31T01:38:43;2.15;;;1.42;;
10617;SDS011;5356;43.526;26.534;2023-07-31T01:41:09;3.17;;;1.30;;
10617;SDS011;5356;43.526;26.534;2023-07-31T01:43:34;1.95;;;1.58;;
10617;SDS011;5356;43.526;26.534;2023-07-31T01:45:59;2.90;;;1.55;;
10617;SDS011;5356;43.526;26.534;2023-07-31T01:48:25;1.65;;;1.25;;
10617;SDS011;5356;43.526;26.534;2023-07-31T01:50:50;2.25;;;1.60;;
10617;SDS011;5356;43.526;26.534;2023-07-31T01:53:16;1.90;;;1.58;;
10617;SDS011;5356;43.526;26.534;2023-07-31T01:55:41;2.92;;;1.92;;
10617;SDS011;5356;43.526;26.534;2023-07-31T01:58:07;2.00;;;1.70;;
10617;SDS011;5356;43.526;26.534;2023-07-31T02:00:32;2.67;;;1.77;;
10617;SDS011;5356;43.526;26.534;2023-07-31T02:02:59;3.28;;;2.08;;
10617;SDS011;5356;43.526;26.534;2023-07-31T02:05:24;2.60;;;1.83;;
10617;SDS011;5356;43.526;26.534;2023-07-31T02:07:50;2.38;;;1.90;;
10617;SDS011;5356;43.526;26.534;2023-07-31T02:10:15;1.63;;;1.52;;
10617;SDS011;5356;43.526;26.534;2023-07-31T02:12:40;3.10;;;1.92;;
10617;SDS011;5356;43.526;26.534;2023-07-31T02:15:06;2.53;;;1.80;;
10617;SDS011;5356;43.526;26.534;2023-07-31T02:17:32;2.65;;;1.92;;
10617;SDS011;5356;43.526;26.534;2023-07-31T02:19:57;3.28;;;2.10;;
10617;SDS011;5356;43.526;26.534;2023-07-31T02:22:23;3.53;;;1.90;;
10617;SDS011;5356;43.526;26.534;2023-07-31T02:24:48;2.42;;;1.90;;
10617;SDS011;5356;43.526;26.534;2023-07-31T02:27:13;2.17;;;1.92;;
10617;SDS011;5356;43.526;26.534;2023-07-31T02:29:39;2.20;;;1.70;;
10617;SDS011;5356;43.526;26.534;2023-07-31T02:32:04;1.65;;;1.55;;
10617;SDS011;5356;43.526;26.534;2023-07-31T02:34:30;2.30;;;1.70;;
10617;SDS011;5356;43.526;26.534;2023-07-31T02:36:55;2.83;;;2.20;;
10617;SDS011;5356;43.526;26.534;2023-07-31T02:39:21;2.47;;;1.75;;
10617;SDS011;5356;43.526;26.534;2023-07-31T02:41:46;2.10;;;1.90;;
10617;SDS011;5356;43.526;26.534;2023-07-31T02:44:12;2.67;;;1.88;;
10617;SDS011;5356;43.526;26.534;2023-07-31T02:46:39;4.22;;;2.05;;
10617;SDS011;5356;43.526;26.534;2023-07-31T02:49:05;3.22;;;2.20;;
10617;SDS011;5356;43.526;26.534;2023-07-31T02:51:30;3.05;;;2.28;;
10617;SDS011;5356;43.526;26.534;2023-07-31T02:53:56;2.00;;;1.80;;
10617;SDS011;5356;43.526;26.534;2023-07-31T02:56:22;3.20;;;1.80;;
10617;SDS011;5356;43.526;26.534;2023-07-31T02:58:47;2.75;;;2.03;;
10617;SDS011;5356;43.526;26.534;2023-07-31T03:01:12;2.67;;;1.95;;
10617;SDS011;5356;43.526;26.534;2023-07-31T03:03:38;2.65;;;2.35;;
10617;SDS011;5356;43.526;26.534;2023-07-31T03:06:03;2.63;;;1.88;;
10617;SDS011;5356;43.526;26.534;2023-07-31T03:08:29;3.35;;;1.95;;
10617;SDS011;5356;43.526;26.534;2023-07-31T03:10:54;3.13;;;2.10;;
10617;SDS011;5356;43.526;26.534;2023-07-31T03:13:21;4.45;;;2.40;;
10617;SDS011;5356;43.526;26.534;2023-07-31T03:15:47;2.20;;;2.00;;
10617;SDS011;5356;43.526;26.534;2023-07-31T03:18:12;3.35;;;2.65;;
10617;SDS011;5356;43.526;26.534;2023-07-31T03:20:41;2.55;;;2.00;;
10617;SDS011;5356;43.526;26.534;2023-07-31T03:23:07;4.55;;;2.60;;
10617;SDS011;5356;43.526;26.534;2023-07-31T03:25:33;4.18;;;2.08;;
10617;SDS011;5356;43.526;26.534;2023-07-31T03:27:59;2.83;;;1.92;;
10617;SDS011;5356;43.526;26.534;2023-07-31T03:30:24;2.97;;;2.17;;
10617;SDS011;5356;43.526;26.534;2023-07-31T03:32:49;2.30;;;2.10;;
10617;SDS011;5356;43.526;26.534;2023-07-31T03:35:15;2.20;;;2.00;;
10617;SDS011;5356;43.526;26.534;2023-07-31T03:37:40;3.65;;;2.30;;
10617;SDS011;5356;43.526;26.534;2023-07-31T03:40:06;3.83;;;2.47;;
10617;SDS011;5356;43.526;26.534;2023-07-31T03:42:32;2.55;;;2.17;;
10617;SDS011;5356;43.526;26.534;2023-07-31T03:44:58;3.95;;;2.00;;
10617;SDS011;5356;43.526;26.534;2023-07-31T03:47:24;2.80;;;2.42;;
10617;SDS011;5356;43.526;26.534;2023-07-31T03:49:49;3.33;;;2.38;;
10617;SDS011;5356;43.526;26.534;2023-07-31T03:52:15;2.55;;;2.20;;
10617;SDS011;5356;43.526;26.534;2023-07-31T03:54:40;3.00;;;2.65;;
10617;SDS011;5356;43.526;26.534;2023-07-31T03:57:06;4.00;;;2.80;;
10617;SDS011;5356;43.526;26.534;2023-07-31T03:59:31;3.60;;;2.58;;
10617;SDS011;5356;43.526;26.534;2023-07-31T04:01:57;4.03;;;2.72;;
10617;SDS011;5356;43.526;26.534;2023-07-31T04:04:22;3.92;;;2.72;;
10617;SDS011;5356;43.526;26.534;2023-07-31T04:06:48;3.55;;;2.60;;
10617;SDS011;5356;43.526;26.534;2023-07-31T04:09:13;3.83;;;3.00;;
10617;SDS011;5356;43.526;26.534;2023-07-31T04:11:39;5.47;;;3.13;;
10617;SDS011;5356;43.526;26.534;2023-07-31T04:14:04;6.25;;;2.67;;
10617;SDS011;5356;43.526;26.534;2023-07-31T04:16:29;5.25;;;2.65;;
10617;SDS011;5356;43.526;26.534;2023-07-31T04:18:55;5.10;;;2.85;;
10617;SDS011;5356;43.526;26.534;2023-07-31T04:21:20;4.03;;;2.92;;
10617;SDS011;5356;43.526;26.534;2023-07-31T04:23:46;4.57;;;3.40;;
10617;SDS011;5356;43.526;26.534;2023-07-31T04:26:11;3.70;;;2.97;;
10617;SDS011;5356;43.526;26.534;2023-07-31T04:28:37;6.38;;;3.80;;
10617;SDS011;5356;43.526;26.534;2023-07-31T04:31:02;18.10;;;5.97;;
10617;SDS011;5356;43.526;26.534;2023-07-31T04:33:28;6.50;;;4.50;;
10617;SDS011;5356;43.526;26.534;2023-07-31T04:35:53;5.45;;;4.03;;
10617;SDS011;5356;43.526;26.534;2023-07-31T04:38:20;4.65;;;4.05;;
10617;SDS011;5356;43.526;26.534;2023-07-31T04:40:46;6.28;;;4.80;;
10617;SDS011;5356;43.526;26.534;2023-07-31T04:43:12;6.03;;;4.38;;
10617;SDS011;5356;43.526;26.534;2023-07-31T04:45:37;6.15;;;5.00;;
10617;SDS011;5356;43.526;26.534;2023-07-31T04:48:03;6.65;;;4.53;;
10617;SDS011;5356;43.526;26.534;2023-07-31T04:50:29;7.68;;;5.53;;
10617;SDS011;5356;43.526;26.534;2023-07-31T04:52:55;6.47;;;5.38;;
10617;SDS011;5356;43.526;26.534;2023-07-31T04:55:21;6.22;;;5.55;;
10617;SDS011;5356;43.526;26.534;2023-07-31T04:57:46;8.73;;;5.57;;
10617;SDS011;5356;43.526;26.534;2023-07-31T05:00:12;8.32;;;5.72;;
10617;SDS011;5356;43.526;26.534;2023-07-31T05:02:37;8.05;;;5.80;;
10617;SDS011;5356;43.526;26.534;2023-07-31T05:05:03;9.18;;;6.10;;
10617;SDS011;5356;43.526;26.534;2023-07-31T05:07:29;6.63;;;5.15;;
10617;SDS011;5356;43.526;26.534;2023-07-31T05:09:54;8.10;;;6.18;;
10617;SDS011;5356;43.526;26.534;2023-07-31T05:12:20;9.23;;;6.45;;
10617;SDS011;5356;43.526;26.534;2023-07-31T05:14:45;7.65;;;5.32;;
10617;SDS011;5356;43.526;26.534;2023-07-31T05:17:10;7.75;;;6.07;;
10617;SDS011;5356;43.526;26.534;2023-07-31T05:19:36;7.78;;;6.32;;
10617;SDS011;5356;43.526;26.534;2023-07-31T05:22:01;7.90;;;5.57;;
10617;SDS011;5356;43.526;26.534;2023-07-31T05:24:27;10.00;;;6.53;;
10617;SDS011;5356;43.526;26.534;2023-07-31T05:26:52;7.65;;;6.22;;
10617;SDS011;5356;43.526;26.534;2023-07-31T05:29:18;7.60;;;6.28;;
10617;SDS011;5356;43.526;26.534;2023-07-31T05:31:43;9.82;;;6.32;;
10617;SDS011;5356;43.526;26.534;2023-07-31T05:34:08;8.40;;;6.50;;
10617;SDS011;5356;43.526;26.534;2023-07-31T05:36:34;9.45;;;7.28;;
10617;SDS011;5356;43.526;26.534;2023-07-31T05:39:00;7.53;;;6.78;;
10617;SDS011;5356;43.526;26.534;2023-07-31T05:41:31;9.52;;;6.70;;
10617;SDS011;5356;43.526;26.534;2023-07-31T05:43:56;8.52;;;6.60;;
10617;SDS011;5356;43.526;26.534;2023-07-31T05:46:22;8.50;;;7.00;;
10617;SDS011;5356;43.526;26.534;2023-07-31T05:48:47;7.90;;;6.28;;
10617;SDS011;5356;43.526;26.534;2023-07-31T05:51:13;9.82;;;7.00;;
10617;SDS011;5356;43.526;26.534;2023-07-31T05:53:38;8.68;;;6.63;;
10617;SDS011;5356;43.526;26.534;2023-07-31T05:56:05;9.13;;;7.25;;
10617;SDS011;5356;43.526;26.534;2023-07-31T05:58:31;9.02;;;6.90;;
10617;SDS011;5356;43.526;26.534;2023-07-31T06:00:56;9.52;;;7.32;;
10617;SDS011;5356;43.526;26.534;2023-07-31T06:03:22;9.93;;;7.07;;
10617;SDS011;5356;43.526;26.534;2023-07-31T06:05:47;8.13;;;7.32;;
10617;SDS011;5356;43.526;26.534;2023-07-31T06:08:13;9.95;;;6.60;;
10617;SDS011;5356;43.526;26.534;2023-07-31T06:10:38;9.52;;;7.38;;
10617;SDS011;5356;43.526;26.534;2023-07-31T06:13:04;8.05;;;7.18;;
10617;SDS011;5356;43.526;26.534;2023-07-31T06:15:30;8.73;;;7.32;;
10617;SDS011;5356;43.526;26.534;2023-07-31T06:17:56;8.93;;;7.47;;
10617;SDS011;5356;43.526;26.534;2023-07-31T06:20:21;10.20;;;7.38;;
10617;SDS011;5356;43.526;26.534;2023-07-31T06:22:47;9.38;;;7.68;;
10617;SDS011;5356;43.526;26.534;2023-07-31T06:25:12;10.30;;;8.55;;
10617;SDS011;5356;43.526;26.534;2023-07-31T06:27:38;8.18;;;7.38;;
10617;SDS011;5356;43.526;26.534;2023-07-31T06:30:03;8.90;;;7.38;;
10617;SDS011;5356;43.526;26.534;2023-07-31T06:32:30;10.77;;;8.75;;
10617;SDS011;5356;43.526;26.534;2023-07-31T06:34:55;8.93;;;7.28;;
10617;SDS011;5356;43.526;26.534;2023-07-31T06:37:21;10.57;;;8.10;;
10617;SDS011;5356;43.526;26.534;2023-07-31T06:39:46;10.35;;;7.80;;
10617;SDS011;5356;43.526;26.534;2023-07-31T06:42:12;9.20;;;7.88;;
10617;SDS011;5356;43.526;26.534;2023-07-31T06:44:37;10.65;;;8.13;;
10617;SDS011;5356;43.526;26.534;2023-07-31T06:47:03;8.85;;;7.85;;
10617;SDS011;5356;43.526;26.534;2023-07-31T06:49:28;7.78;;;6.97;;
10617;SDS011;5356;43.526;26.534;2023-07-31T06:51:54;8.90;;;7.97;;
10617;SDS011;5356;43.526;26.534;2023-07-31T06:54:20;9.80;;;8.50;;
10617;SDS011;5356;43.526;26.534;2023-07-31T06:56:45;11.50;;;8.68;;
10617;SDS011;5356;43.526;26.534;2023-07-31T06:59:11;8.90;;;7.80;;
10617;SDS011;5356;43.526;26.534;2023-07-31T07:01:36;9.68;;;7.47;;
10617;SDS011;5356;43.526;26.534;2023-07-31T07:04:02;9.15;;;8.10;;
10617;SDS011;5356;43.526;26.534;2023-07-31T07:06:27;9.38;;;8.18;;
10617;SDS011;5356;43.526;26.534;2023-07-31T07:08:53;10.02;;;8.25;;
10617;SDS011;5356;43.526;26.534;2023-07-31T07:11:18;9.18;;;8.07;;
10617;SDS011;5356;43.526;26.534;2023-07-31T07:13:43;8.95;;;7.63;;
10617;SDS011;5356;43.526;26.534;2023-07-31T07:16:09;10.15;;;7.93;;
10617;SDS011;5356;43.526;26.534;2023-07-31T07:18:36;9.65;;;8.65;;
10617;SDS011;5356;43.526;26.534;2023-07-31T07:21:02;10.15;;;8.82;;
10617;SDS011;5356;43.526;26.534;2023-07-31T07:23:27;11.38;;;9.23;;
10617;SDS011;5356;43.526;26.534;2023-07-31T07:25:53;10.07;;;7.88;;
10617;SDS011;5356;43.526;26.534;2023-07-31T07:28:18;11.07;;;8.27;;
10617;SDS011;5356;43.526;26.534;2023-07-31T07:30:44;10.68;;;8.45;;
10617;SDS011;5356;43.526;26.534;2023-07-31T07:33:09;11.75;;;8.73;;
10617;SDS011;5356;43.526;26.534;2023-07-31T07:35:35;9.52;;;8.52;;
10617;SDS011;5356;43.526;26.534;2023-07-31T07:38:04;11.18;;;9.00;;
10617;SDS011;5356;43.526;26.534;2023-07-31T07:40:29;9.43;;;8.23;;
10617;SDS011;5356;43.526;26.534;2023-07-31T07:42:55;9.40;;;8.43;;
10617;SDS011;5356;43.526;26.534;2023-07-31T07:45:20;9.40;;;8.45;;
10617;SDS011;5356;43.526;26.534;2023-07-31T07:47:45;9.43;;;8.15;;
10617;SDS011;5356;43.526;26.534;2023-07-31T07:50:11;9.73;;;8.73;;
10617;SDS011;5356;43.526;26.534;2023-07-31T07:52:36;10.50;;;9.40;;
10617;SDS011;5356;43.526;26.534;2023-07-31T07:55:02;9.93;;;8.93;;
10617;SDS011;5356;43.526;26.534;2023-07-31T07:57:28;10.68;;;8.65;;
10617;SDS011;5356;43.526;26.534;2023-07-31T07:59:54;10.93;;;8.63;;
10617;SDS011;5356;43.526;26.534;2023-07-31T08:02:19;12.20;;;10.15;;
10617;SDS011;5356;43.526;26.534;2023-07-31T08:04:45;10.63;;;9.05;;
10617;SDS011;5356;43.526;26.534;2023-07-31T08:07:10;11.20;;;9.27;;
10617;SDS011;5356;43.526;26.534;2023-07-31T08:09:37;10.32;;;8.43;;
10617;SDS011;5356;43.526;26.534;2023-07-31T08:12:03;12.13;;;10.10;;
10617;SDS011;5356;43.526;26.534;2023-07-31T08:14:29;11.32;;;9.25;;
10617;SDS011;5356;43.526;26.534;2023-07-31T08:16:54;12.80;;;9.43;;
10617;SDS011;5356;43.526;26.534;2023-07-31T08:19:20;9.38;;;8.25;;
10617;SDS011;5356;43.526;26.534;2023-07-31T08:21:46;11.10;;;8.77;;
10617;SDS011;5356;43.526;26.534;2023-07-31T08:24:11;11.68;;;9.68;;
10617;SDS011;5356;43.526;26.534;2023-07-31T08:26:37;11.85;;;9.63;;
10617;SDS011;5356;43.526;26.534;2023-07-31T08:29:02;10.85;;;9.30;;
10617;SDS011;5356;43.526;26.534;2023-07-31T08:31:28;11.00;;;9.32;;
10617;SDS011;5356;43.526;26.534;2023-07-31T08:33:54;13.02;;;9.77;;
10617;SDS011;5356;43.526;26.534;2023-07-31T08:36:19;12.75;;;10.50;;
10617;SDS011;5356;43.526;26.534;2023-07-31T08:38:45;11.63;;;9.90;;
10617;SDS011;5356;43.526;26.534;2023-07-31T08:41:11;11.85;;;10.27;;
10617;SDS011;5356;43.526;26.534;2023-07-31T08:43:38;12.43;;;10.60;;
10617;SDS011;5356;43.526;26.534;2023-07-31T08:46:04;13.55;;;11.13;;
10617;SDS011;5356;43.526;26.534;2023-07-31T08:48:30;13.75;;;11.32;;
10617;SDS011;5356;43.526;26.534;2023-07-31T08:50:57;12.05;;;10.73;;
10617;SDS011;5356;43.526;26.534;2023-07-31T08:53:22;12.23;;;10.80;;
10617;SDS011;5356;43.526;26.534;2023-07-31T08:55:48;12.52;;;10.80;;
10617;SDS011;5356;43.526;26.534;2023-07-31T08:58:14;14.45;;;11.68;;
10617;SDS011;5356;43.526;26.534;2023-07-31T09:00:42;14.07;;;11.20;;
10617;SDS011;5356;43.526;26.534;2023-07-31T09:03:15;13.70;;;11.85;;
10617;SDS011;5356;43.526;26.534;2023-07-31T09:05:45;16.50;;;12.02;;
10617;SDS011;5356;43.526;26.534;2023-07-31T09:08:12;15.15;;;12.07;;
10617;SDS011;5356;43.526;26.534;2023-07-31T09:10:42;17.10;;;12.50;;
10617;SDS011;5356;43.526;26.534;2023-07-31T09:13:10;12.85;;;11.27;;
10617;SDS011;5356;43.526;26.534;2023-07-31T09:15:36;15.55;;;13.07;;
10617;SDS011;5356;43.526;26.534;2023-07-31T09:18:03;15.95;;;12.32;;
10617;SDS011;5356;43.526;26.534;2023-07-31T09:20:30;14.90;;;12.98;;
10617;SDS011;5356;43.526;26.534;2023-07-31T09:22:56;14.55;;;12.10;;
10617;SDS011;5356;43.526;26.534;2023-07-31T09:25:31;16.33;;;12.85;;
10617;SDS011;5356;43.526;26.534;2023-07-31T09:28:01;15.25;;;11.77;;
10617;SDS011;5356;43.526;26.534;2023-07-31T09:30:28;16.13;;;12.57;;
10617;SDS011;5356;43.526;26.534;2023-07-31T09:33:00;25.90;;;14.57;;
10617;SDS011;5356;43.526;26.534;2023-07-31T09:35:31;19.77;;;14.35;;
10617;SDS011;5356;43.526;26.534;2023-07-31T09:38:19;26.13;;;16.30;;
10617;SDS011;5356;43.526;26.534;2023-07-31T09:40:45;15.02;;;12.40;;
10617;SDS011;5356;43.526;26.534;2023-07-31T09:43:17;16.55;;;11.98;;
10617;SDS011;5356;43.526;26.534;2023-07-31T09:45:44;18.33;;;13.57;;
10617;SDS011;5356;43.526;26.534;2023-07-31T09:48:14;17.85;;;13.07;;
10617;SDS011;5356;43.526;26.534;2023-07-31T09:50:42;15.98;;;12.30;;
10617;SDS011;5356;43.526;26.534;2023-07-31T09:53:09;14.70;;;12.38;;
10617;SDS011;5356;43.526;26.534;2023-07-31T09:55:35;17.60;;;13.82;;
10617;SDS011;5356;43.526;26.534;2023-07-31T09:58:03;17.70;;;12.95;;
10617;SDS011;5356;43.526;26.534;2023-07-31T10:00:30;15.73;;;12.75;;
10617;SDS011;5356;43.526;26.534;2023-07-31T10:02:58;15.20;;;11.88;;
10617;SDS011;5356;43.526;26.534;2023-07-31T10:05:25;15.02;;;11.70;;
10617;SDS011;5356;43.526;26.534;2023-07-31T10:07:58;14.90;;;11.35;;
10617;SDS011;5356;43.526;26.534;2023-07-31T10:10:24;14.35;;;12.25;;
10617;SDS011;5356;43.526;26.534;2023-07-31T10:12:51;16.35;;;12.40;;
10617;SDS011;5356;43.526;26.534;2023-07-31T10:15:18;16.05;;;12.27;;
10617;SDS011;5356;43.526;26.534;2023-07-31T10:17:45;15.75;;;12.48;;
10617;SDS011;5356;43.526;26.534;2023-07-31T10:20:12;16.63;;;12.32;;
10617;SDS011;5356;43.526;26.534;2023-07-31T10:22:37;17.02;;;12.80;;
10617;SDS011;5356;43.526;26.534;2023-07-31T10:25:03;17.63;;;13.13;;
10617;SDS011;5356;43.526;26.534;2023-07-31T10:27:32;17.23;;;12.15;;
10617;SDS011;5356;43.526;26.534;2023-07-31T10:30:00;16.08;;;12.43;;
10617;SDS011;5356;43.526;26.534;2023-07-31T10:32:28;13.23;;;11.43;;
10617;SDS011;5356;43.526;26.534;2023-07-31T10:34:54;15.65;;;12.48;;
10617;SDS011;5356;43.526;26.534;2023-07-31T10:42:27;20.52;;;14.25;;
10617;SDS011;5356;43.526;26.534;2023-07-31T10:45:01;22.75;;;15.43;;
10617;SDS011;5356;43.526;26.534;2023-07-31T10:47:40;24.25;;;14.32;;
10617;SDS011;5356;43.526;26.534;2023-07-31T10:52:51;18.77;;;14.32;;
10617;SDS011;5356;43.526;26.534;2023-07-31T10:55:25;18.60;;;14.23;;
10617;SDS011;5356;43.526;26.534;2023-07-31T10:57:57;18.15;;;13.63;;
10617;SDS011;5356;43.526;26.534;2023-07-31T11:00:33;21.05;;;14.35;;
10617;SDS011;5356;43.526;26.534;2023-07-31T11:03:20;18.95;;;13.20;;
10617;SDS011;5356;43.526;26.534;2023-07-31T11:06:03;14.10;;;11.52;;
10617;SDS011;5356;43.526;26.534;2023-07-31T11:08:30;16.60;;;12.05;;
10617;SDS011;5356;43.526;26.534;2023-07-31T11:15:58;13.02;;;9.65;;
10617;SDS011;5356;43.526;26.534;2023-07-31T11:18:25;15.52;;;10.13;;
10617;SDS011;5356;43.526;26.534;2023-07-31T11:20:52;11.50;;;9.60;;
10617;SDS011;5356;43.526;26.534;2023-07-31T11:23:19;14.65;;;10.88;;
10617;SDS011;5356;43.526;26.534;2023-07-31T11:25:46;10.27;;;8.77;;
10617;SDS011;5356;43.526;26.534;2023-07-31T11:28:13;11.48;;;9.73;;
10617;SDS011;5356;43.526;26.534;2023-07-31T11:30:40;13.45;;;10.43;;
10617;SDS011;5356;43.526;26.534;2023-07-31T11:33:07;11.00;;;9.50;;
10617;SDS011;5356;43.526;26.534;2023-07-31T11:35:41;12.07;;;9.60;;
10617;SDS011;5356;43.526;26.534;2023-07-31T11:38:11;9.23;;;8.20;;
10617;SDS011;5356;43.526;26.534;2023-07-31T11:40:41;9.63;;;8.38;;
10617;SDS011;5356;43.526;26.534;2023-07-31T11:43:08;9.63;;;8.18;;
10617;SDS011;5356;43.526;26.534;2023-07-31T11:45:33;9.48;;;8.25;;
10617;SDS011;5356;43.526;26.534;2023-07-31T11:48:00;7.68;;;6.97;;
10617;SDS011;5356;43.526;26.534;2023-07-31T11:50:26;9.02;;;8.13;;
10617;SDS011;5356;43.526;26.534;2023-07-31T11:59:31;8.48;;;7.57;;
10617;SDS011;5356;43.526;26.534;2023-07-31T12:02:03;8.18;;;6.57;;
10617;SDS011;5356;43.526;26.534;2023-07-31T12:04:29;8.07;;;7.28;;
10617;SDS011;5356;43.526;26.534;2023-07-31T12:06:55;7.85;;;7.05;;
10617;SDS011;5356;43.526;26.534;2023-07-31T12:09:20;7.63;;;6.68;;
10617;SDS011;5356;43.526;26.534;2023-07-31T12:11:46;8.05;;;7.25;;
10617;SDS011;5356;43.526;26.534;2023-07-31T12:14:25;8.60;;;7.47;;
10617;SDS011;5356;43.526;26.534;2023-07-31T12:16:54;8.13;;;7.32;;
10617;SDS011;5356;43.526;26.534;2023-07-31T12:19:26;9.57;;;8.18;;
10617;SDS011;5356;43.526;26.534;2023-07-31T12:21:55;8.35;;;6.82;;
10617;SDS011;5356;43.526;26.534;2023-07-31T12:24:21;7.82;;;7.03;;
10617;SDS011;5356;43.526;26.534;2023-07-31T12:26:47;8.93;;;8.00;;
10617;SDS011;5356;43.526;26.534;2023-07-31T12:29:13;8.25;;;7.45;;
10617;SDS011;5356;43.526;26.534;2023-07-31T12:31:40;8.18;;;7.18;;
10617;SDS011;5356;43.526;26.534;2023-07-31T12:34:17;9.30;;;7.25;;
10617;SDS011;5356;43.526;26.534;2023-07-31T12:36:46;7.95;;;7.15;;
10617;SDS011;5356;43.526;26.534;2023-07-31T12:39:14;9.15;;;8.23;;
10617;SDS011;5356;43.526;26.534;2023-07-31T12:41:40;9.70;;;8.20;;
10617;SDS011;5356;43.526;26.534;2023-07-31T12:44:05;9.85;;;8.02;;
10617;SDS011;5356;43.526;26.534;2023-07-31T12:46:31;9.45;;;7.35;;
10617;SDS011;5356;43.526;26.534;2023-07-31T12:48:56;15.20;;;9.32;;
10617;SDS011;5356;43.526;26.534;2023-07-31T12:51:22;9.98;;;7.20;;
10617;SDS011;5356;43.526;26.534;2023-07-31T12:53:47;9.77;;;7.85;;
10617;SDS011;5356;43.526;26.534;2023-07-31T12:56:13;8.43;;;7.30;;
10617;SDS011;5356;43.526;26.534;2023-07-31T12:58:38;8.73;;;7.63;;
10617;SDS011;5356;43.526;26.534;2023-07-31T13:01:04;9.00;;;8.13;;
10617;SDS011;5356;43.526;26.534;2023-07-31T13:03:30;8.75;;;7.60;;
10617;SDS011;5356;43.526;26.534;2023-07-31T13:05:56;7.95;;;6.95;;
10617;SDS011;5356;43.526;26.534;2023-07-31T13:08:22;10.48;;;7.90;;
10617;SDS011;5356;43.526;26.534;2023-07-31T13:10:48;12.13;;;8.82;;
10617;SDS011;5356;43.526;26.534;2023-07-31T13:13:13;10.55;;;8.77;;
10617;SDS011;5356;43.526;26.534;2023-07-31T13:15:38;10.60;;;8.88;;
10617;SDS011;5356;43.526;26.534;2023-07-31T13:18:04;9.90;;;8.82;;
10617;SDS011;5356;43.526;26.534;2023-07-31T13:20:29;9.07;;;7.70;;
10617;SDS011;5356;43.526;26.534;2023-07-31T13:22:55;10.60;;;8.15;;
10617;SDS011;5356;43.526;26.534;2023-07-31T13:25:21;10.60;;;8.48;;
10617;SDS011;5356;43.526;26.534;2023-07-31T13:27:47;12.07;;;8.23;;
10617;SDS011;5356;43.526;26.534;2023-07-31T13:30:12;12.15;;;8.48;;
10617;SDS011;5356;43.526;26.534;2023-07-31T13:32:38;12.70;;;7.90;;
10617;SDS011;5356;43.526;26.534;2023-07-31T13:35:07;10.13;;;7.80;;
10617;SDS011;5356;43.526;26.534;2023-07-31T13:37:37;9.23;;;7.53;;
10617;SDS011;5356;43.526;26.534;2023-07-31T13:40:05;8.38;;;7.63;;
10617;SDS011;5356;43.526;26.534;2023-07-31T13:42:31;10.15;;;7.38;;
10617;SDS011;5356;43.526;26.534;2023-07-31T13:44:57;8.75;;;7.80;;
10617;SDS011;5356;43.526;26.534;2023-07-31T13:47:23;8.68;;;7.25;;
10617;SDS011;5356;43.526;26.534;2023-07-31T13:49:48;9.15;;;7.07;;
10617;SDS011;5356;43.526;26.534;2023-07-31T13:52:14;11.20;;;9.48;;
10617;SDS011;5356;43.526;26.534;2023-07-31T13:54:40;8.25;;;7.40;;
10617;SDS011;5356;43.526;26.534;2023-07-31T13:57:07;11.18;;;8.10;;
10617;SDS011;5356;43.526;26.534;2023-07-31T13:59:33;7.18;;;6.45;;
10617;SDS011;5356;43.526;26.534;2023-07-31T14:01:59;9.85;;;7.30;;
10617;SDS011;5356;43.526;26.534;2023-07-31T14:04:24;13.80;;;7.68;;
10617;SDS011;5356;43.526;26.534;2023-07-31T14:06:49;11.05;;;6.85;;
10617;SDS011;5356;43.526;26.534;2023-07-31T14:09:16;11.88;;;7.38;;
10617;SDS011;5356;43.526;26.534;2023-07-31T14:11:43;7.72;;;6.90;;
10617;SDS011;5356;43.526;26.534;2023-07-31T14:14:08;8.43;;;7.57;;
10617;SDS011;5356;43.526;26.534;2023-07-31T14:16:34;7.85;;;7.05;;
10617;SDS011;5356;43.526;26.534;2023-07-31T14:19:02;13.88;;;7.43;;
10617;SDS011;5356;43.526;26.534;2023-07-31T14:21:28;7.78;;;6.50;;
10617;SDS011;5356;43.526;26.534;2023-07-31T14:23:56;9.13;;;7.93;;
10617;SDS011;5356;43.526;26.534;2023-07-31T14:26:23;8.18;;;6.82;;
10617;SDS011;5356;43.526;26.534;2023-07-31T14:32:40;7.70;;;6.90;;
10617;SDS011;5356;43.526;26.534;2023-07-31T14:35:42;8.30;;;6.95;;
10617;SDS011;5356;43.526;26.534;2023-07-31T14:41:07;8.50;;;7.60;;
10617;SDS011;5356;43.526;26.534;2023-07-31T14:43:33;9.68;;;7.38;;
10617;SDS011;5356;43.526;26.534;2023-07-31T14:46:07;11.38;;;7.88;;
10617;SDS011;5356;43.526;26.534;2023-07-31T14:48:33;8.90;;;6.68;;
10617;SDS011;5356;43.526;26.534;2023-07-31T14:50:58;11.77;;;8.45;;
10617;SDS011;5356;43.526;26.534;2023-07-31T14:53:24;10.10;;;7.47;;
10617;SDS011;5356;43.526;26.534;2023-07-31T14:55:49;13.40;;;8.02;;
10617;SDS011;5356;43.526;26.534;2023-07-31T14:58:15;11.18;;;6.85;;
10617;SDS011;5356;43.526;26.534;2023-07-31T15:00:42;6.82;;;6.10;;
10617;SDS011;5356;43.526;26.534;2023-07-31T15:03:07;8.02;;;6.53;;
10617;SDS011;5356;43.526;26.534;2023-07-31T15:05:33;12.75;;;7.75;;
10617;SDS011;5356;43.526;26.534;2023-07-31T15:07:58;7.82;;;6.72;;